createdAt,value
2019-03-31T00:00:34.081Z,563.6
2019-03-31T00:01:36.506Z,563.8
2019-03-31T00:02:38.937Z,563.4
2019-03-31T00:03:41.449Z,563.9
2019-03-31T00:04:43.879Z,563.8
2019-03-31T00:05:45.493Z,564
2019-03-31T00:06:47.918Z,564.1
2019-03-31T00:07:50.343Z,564
2019-03-31T00:08:52.802Z,564.1
2019-03-31T00:09:55.230Z,564
2019-03-31T00:12:03.818Z,564.2
2019-03-31T00:13:05.981Z,563.9
2019-03-31T00:14:08.407Z,563.9
2019-03-31T00:15:10.557Z,563.9
2019-03-31T00:16:12.987Z,564.1
2019-03-31T00:17:15.153Z,563.9
2019-03-31T00:18:17.295Z,564
2019-03-31T00:19:19.452Z,563.9
2019-03-31T00:20:21.585Z,563.8
2019-03-31T00:21:23.439Z,563.8
2019-03-31T00:22:25.622Z,564.3
2019-03-31T00:23:28.049Z,563.6
2019-03-31T00:24:30.187Z,563.5
2019-03-31T00:25:32.680Z,563.8
2019-03-31T00:26:35.115Z,563.8
2019-03-31T00:27:37.607Z,564.1
2019-03-31T00:28:39.743Z,564.2
2019-03-31T00:29:42.159Z,564
2019-03-31T00:30:44.658Z,564.3
2019-03-31T00:31:47.060Z,564.4
2019-03-31T00:32:48.941Z,564.2
2019-03-31T00:33:51.367Z,564.1
2019-03-31T00:34:53.799Z,564.2
2019-03-31T00:35:56.229Z,564
2019-03-31T00:36:58.661Z,564.3
2019-03-31T00:38:01.098Z,564.2
2019-03-31T00:39:03.528Z,564.6
2019-03-31T00:40:05.953Z,564.6
2019-03-31T00:41:08.378Z,564.7
2019-03-31T00:42:10.549Z,564.5
2019-03-31T00:43:12.991Z,564.6
2019-03-31T00:44:14.614Z,564.6
2019-03-31T00:45:16.771Z,564.9
2019-03-31T00:46:19.197Z,564.7
2019-03-31T00:47:21.356Z,565
2019-03-31T00:48:23.502Z,564.7
2019-03-31T00:49:25.920Z,565.1
2019-03-31T00:50:28.076Z,564.9
2019-03-31T00:51:30.507Z,565
2019-03-31T00:52:32.400Z,564.9
2019-03-31T00:53:34.832Z,564.7
2019-03-31T00:54:37.254Z,564.8
2019-03-31T00:55:39.685Z,565
2019-03-31T00:56:41.837Z,565.2
2019-03-31T00:57:43.988Z,564.9
2019-03-31T00:58:46.418Z,565
2019-03-31T00:59:48.847Z,564.6
2019-03-31T01:00:51.410Z,564.5
2019-03-31T01:01:53.574Z,564.5
2019-03-31T01:02:56.009Z,564.3
2019-03-31T01:03:58.172Z,564.6
2019-03-31T01:05:00.608Z,564.7
2019-03-31T01:06:03.040Z,564.6
2019-03-31T01:07:05.257Z,564.6
2019-03-31T01:08:07.677Z,564.7
2019-03-31T01:09:10.105Z,564.7
2019-03-31T01:10:12.525Z,565.1
2019-03-31T01:11:14.948Z,565
2019-03-31T01:12:17.102Z,565.4
2019-03-31T01:13:19.517Z,565.2
2019-03-31T01:14:21.955Z,565.7
2019-03-31T01:15:24.133Z,564.8
2019-03-31T01:16:26.573Z,565.1
2019-03-31T01:17:28.729Z,565
2019-03-31T01:18:31.149Z,565.2
2019-03-31T01:19:33.582Z,564.8
2019-03-31T01:20:35.743Z,565
2019-03-31T01:21:38.167Z,565.1
2019-03-31T01:22:40.591Z,565
2019-03-31T01:23:43.023Z,565.3
2019-03-31T01:24:45.189Z,565.1
2019-03-31T01:25:47.357Z,565.3
2019-03-31T01:26:49.504Z,564.9
2019-03-31T01:27:51.935Z,564.9
2019-03-31T01:28:54.085Z,564.9
2019-03-31T01:29:56.243Z,564.8
2019-03-31T01:30:58.397Z,564.9
2019-03-31T01:32:00.560Z,565.1
2019-03-31T01:33:02.979Z,565.1
2019-03-31T01:34:05.122Z,564.8
2019-03-31T01:35:07.609Z,565.3
2019-03-31T01:36:10.040Z,564.9
2019-03-31T01:37:12.183Z,564.9
2019-03-31T01:38:14.607Z,564.9
2019-03-31T01:39:17.031Z,565
2019-03-31T01:40:19.182Z,565.3
2019-03-31T01:41:21.597Z,565
2019-03-31T01:42:24.084Z,565.5
2019-03-31T01:43:26.517Z,565.4
2019-03-31T01:44:29.029Z,565.4
2019-03-31T01:45:31.453Z,565.7
2019-03-31T01:46:33.605Z,565.6
2019-03-31T01:47:35.728Z,565.5
2019-03-31T01:48:37.879Z,565.5
2019-03-31T01:49:40.319Z,565.9
2019-03-31T01:50:42.758Z,565.4
2019-03-31T01:51:44.922Z,565.7
2019-03-31T01:52:47.340Z,565.7
2019-03-31T01:53:49.763Z,565.9
2019-03-31T01:54:52.193Z,566.1
2019-03-31T01:55:54.342Z,566.2
2019-03-31T01:56:56.777Z,566.1
2019-03-31T01:57:59.211Z,565.8
2019-03-31T01:59:01.638Z,566.2
2019-03-31T02:00:03.772Z,566.2
2019-03-31T02:01:06.200Z,566
2019-03-31T02:02:08.626Z,565.7
2019-03-31T02:03:10.516Z,565.9
2019-03-31T02:04:12.947Z,565.7
2019-03-31T02:05:15.371Z,566
2019-03-31T02:06:17.525Z,565.9
2019-03-31T02:07:19.685Z,565.2
2019-03-31T02:08:22.117Z,565.9
2019-03-31T02:09:24.560Z,565.7
2019-03-31T02:10:26.709Z,566.4
2019-03-31T02:11:29.123Z,566.2
2019-03-31T02:12:31.542Z,566.3
2019-03-31T02:13:33.970Z,566.6
2019-03-31T02:14:36.387Z,566.5
2019-03-31T02:15:38.526Z,566.5
2019-03-31T02:16:40.948Z,566.8
2019-03-31T02:17:43.361Z,566.7
2019-03-31T02:18:45.504Z,566.9
2019-03-31T02:19:47.634Z,567
2019-03-31T02:20:49.776Z,566.7
2019-03-31T02:21:51.942Z,566.9
2019-03-31T02:22:54.377Z,566.8
2019-03-31T02:23:56.801Z,566.9
2019-03-31T02:24:59.219Z,567
2019-03-31T02:26:01.383Z,567
2019-03-31T02:27:03.511Z,567.1
2019-03-31T02:28:05.938Z,567.5
2019-03-31T02:29:08.108Z,567.3
2019-03-31T02:30:10.535Z,567.1
2019-03-31T02:31:12.996Z,566.8
2019-03-31T02:33:20.150Z,567.3
2019-03-31T02:34:22.588Z,567.4
2019-03-31T02:35:25.006Z,567.6
2019-03-31T02:36:27.449Z,567.6
2019-03-31T02:37:29.614Z,567.6
2019-03-31T02:38:32.048Z,567.5
2019-03-31T02:39:34.469Z,567.7
2019-03-31T02:40:37.006Z,567.7
2019-03-31T02:41:39.428Z,568
2019-03-31T02:42:41.782Z,568.4
2019-03-31T02:43:44.223Z,568.2
2019-03-31T02:44:46.377Z,568.7
2019-03-31T02:45:48.799Z,568.1
2019-03-31T02:46:51.242Z,568.2
2019-03-31T02:47:53.680Z,568.2
2019-03-31T02:48:56.115Z,568.2
2019-03-31T02:49:58.279Z,568.3
2019-03-31T02:51:00.704Z,568.5
2019-03-31T02:52:02.567Z,568.4
2019-03-31T02:53:04.999Z,568.3
2019-03-31T02:54:07.438Z,568.7
2019-03-31T02:55:09.863Z,568.2
2019-03-31T02:56:11.998Z,568.7
2019-03-31T02:57:14.419Z,568.7
2019-03-31T02:58:16.570Z,568.7
2019-03-31T02:59:18.728Z,568.4
2019-03-31T03:00:21.159Z,568.8
2019-03-31T03:01:23.310Z,569
2019-03-31T03:03:30.732Z,568.5
2019-03-31T03:04:33.143Z,568.3
2019-03-31T03:05:35.567Z,568.1
2019-03-31T03:06:38.111Z,568.4
2019-03-31T03:07:40.543Z,569.1
2019-03-31T03:08:42.139Z,568.9
2019-03-31T03:09:44.591Z,569.1
2019-03-31T03:10:47.014Z,569.2
2019-03-31T03:11:49.488Z,568.9
2019-03-31T03:12:51.913Z,568.9
2019-03-31T03:13:54.063Z,568.9
2019-03-31T03:14:56.485Z,569
2019-03-31T03:15:58.610Z,568.9
2019-03-31T03:17:00.763Z,568.7
2019-03-31T03:18:02.907Z,568.9
2019-03-31T03:19:05.341Z,568.7
2019-03-31T03:20:07.491Z,568.9
2019-03-31T03:21:09.925Z,568.8
2019-03-31T03:22:12.060Z,569
2019-03-31T03:23:14.205Z,568.6
2019-03-31T03:24:16.071Z,568.7
2019-03-31T03:25:18.492Z,568.9
2019-03-31T03:26:20.943Z,568.7
2019-03-31T03:27:23.085Z,568.9
2019-03-31T03:28:25.506Z,568.9
2019-03-31T03:29:28.031Z,568.7
2019-03-31T03:30:31.123Z,568.5
2019-03-31T03:31:33.649Z,568.6
2019-03-31T03:32:36.071Z,568.8
2019-03-31T03:33:38.489Z,568.8
2019-03-31T03:34:40.923Z,568.6
2019-03-31T03:35:43.081Z,568.6
2019-03-31T03:36:45.896Z,568.8
2019-03-31T03:37:48.320Z,568.7
2019-03-31T03:38:50.892Z,569
2019-03-31T03:39:53.330Z,569
2019-03-31T03:40:55.760Z,569.1
2019-03-31T03:41:58.180Z,569.3
2019-03-31T03:43:00.612Z,569.1
2019-03-31T03:44:04.724Z,569.1
2019-03-31T03:45:06.865Z,569.4
2019-03-31T03:46:09.390Z,569.3
2019-03-31T03:47:11.818Z,569.2
2019-03-31T03:48:13.977Z,569
2019-03-31T03:49:17.628Z,569.4
2019-03-31T03:50:20.123Z,569.3
2019-03-31T03:51:22.055Z,569.4
2019-03-31T03:52:24.242Z,569.5
2019-03-31T03:53:26.662Z,569.4
2019-03-31T03:54:29.092Z,569.3
2019-03-31T03:55:31.518Z,569.1
2019-03-31T03:56:33.709Z,569.3
2019-03-31T03:57:35.854Z,569.2
2019-03-31T03:58:38.017Z,569.4
2019-03-31T03:59:40.452Z,569.7
2019-03-31T04:00:42.720Z,569.5
2019-03-31T04:01:44.869Z,569.7
2019-03-31T04:02:47.397Z,569.5
2019-03-31T04:03:49.558Z,569.5
2019-03-31T04:04:51.988Z,569.6
2019-03-31T04:05:54.142Z,569.5
2019-03-31T04:06:56.557Z,569.5
2019-03-31T04:07:59.075Z,569.6
2019-03-31T04:09:01.500Z,569.4
2019-03-31T04:10:03.646Z,569.5
2019-03-31T04:11:06.067Z,569.5
2019-03-31T04:12:08.512Z,569.8
2019-03-31T04:13:10.944Z,569.2
2019-03-31T04:14:13.354Z,569.4
2019-03-31T04:15:15.783Z,569.4
2019-03-31T04:16:17.936Z,569.4
2019-03-31T04:17:20.351Z,569.5
2019-03-31T04:18:22.774Z,569.3
2019-03-31T04:19:25.239Z,569
2019-03-31T04:20:27.389Z,569.3
2019-03-31T04:21:29.540Z,569.1
2019-03-31T04:22:31.968Z,569.3
2019-03-31T04:23:34.142Z,569.4
2019-03-31T04:24:36.569Z,569.3
2019-03-31T04:25:38.999Z,569.3
2019-03-31T04:26:41.150Z,568.7
2019-03-31T04:27:43.018Z,568.8
2019-03-31T04:28:45.609Z,569
2019-03-31T04:29:48.036Z,569
2019-03-31T04:30:50.469Z,569.1
2019-03-31T04:31:53.014Z,569.3
2019-03-31T04:32:55.179Z,569.7
2019-03-31T04:33:57.655Z,569
2019-03-31T04:35:00.507Z,569.1
2019-03-31T04:36:02.977Z,568.9
2019-03-31T04:37:05.389Z,569
2019-03-31T04:38:07.810Z,569.1
2019-03-31T04:39:10.293Z,568.8
2019-03-31T04:40:12.431Z,569.2
2019-03-31T04:41:14.582Z,569.2
2019-03-31T04:42:17.013Z,569.1
2019-03-31T04:43:19.436Z,569
2019-03-31T04:44:21.319Z,569.1
2019-03-31T04:45:23.734Z,569.2
2019-03-31T04:46:25.593Z,569
2019-03-31T04:47:28.025Z,569.4
2019-03-31T04:48:30.181Z,569.4
2019-03-31T04:49:32.330Z,569.2
2019-03-31T04:50:34.501Z,569.3
2019-03-31T04:51:36.666Z,569.3
2019-03-31T04:52:39.105Z,569.4
2019-03-31T04:53:41.529Z,569.5
2019-03-31T04:54:43.955Z,569.2
2019-03-31T04:55:46.088Z,569
2019-03-31T04:56:48.520Z,569
2019-03-31T04:57:51.010Z,569.3
2019-03-31T04:58:53.428Z,569
2019-03-31T04:59:55.849Z,568.9
2019-03-31T05:00:58.277Z,568.7
2019-03-31T05:02:00.714Z,568.8
2019-03-31T05:03:03.157Z,568.9
2019-03-31T05:04:07.278Z,568.8
2019-03-31T05:05:09.430Z,569
2019-03-31T05:06:11.309Z,568.7
2019-03-31T05:07:13.466Z,568.8
2019-03-31T05:08:15.348Z,568.6
2019-03-31T05:09:17.800Z,568.3
2019-03-31T05:10:19.655Z,568.8
2019-03-31T05:11:21.799Z,568.8
2019-03-31T05:12:24.228Z,568.7
2019-03-31T05:13:26.659Z,568.3
2019-03-31T05:14:28.793Z,568.5
2019-03-31T05:15:31.015Z,568.4
2019-03-31T05:16:33.428Z,568.6
2019-03-31T05:17:37.818Z,568.7
2019-03-31T05:18:40.248Z,568.3
2019-03-31T05:19:42.658Z,568.2
2019-03-31T05:20:44.524Z,568.4
2019-03-31T05:21:46.957Z,568.2
2019-03-31T05:22:52.653Z,568.5
2019-03-31T05:23:56.011Z,568.5
2019-03-31T05:24:58.440Z,568.5
2019-03-31T05:26:00.868Z,568.4
2019-03-31T05:27:03.029Z,568.2
2019-03-31T05:28:05.182Z,568.3
2019-03-31T05:29:07.327Z,568
2019-03-31T05:30:09.768Z,568.3
2019-03-31T05:31:11.920Z,568.1
2019-03-31T05:32:13.791Z,568.3
2019-03-31T05:33:15.948Z,567.9
2019-03-31T05:35:26.737Z,567.9
2019-03-31T05:36:30.246Z,568.2
2019-03-31T05:37:33.188Z,568.1
2019-03-31T05:38:35.618Z,567.7
2019-03-31T05:39:37.849Z,568.5
2019-03-31T05:40:41.018Z,567.5
2019-03-31T05:41:43.525Z,567.5
2019-03-31T05:42:45.962Z,567.9
2019-03-31T05:43:48.115Z,567.2
2019-03-31T05:44:50.548Z,567.4
2019-03-31T05:46:07.646Z,567.4
2019-03-31T05:47:10.072Z,567.3
2019-03-31T05:48:12.204Z,567.3
2019-03-31T05:49:14.368Z,567.2
2019-03-31T05:50:16.798Z,567.4
2019-03-31T05:51:19.299Z,566.9
2019-03-31T05:52:21.726Z,566.9
2019-03-31T05:53:23.869Z,566.8
2019-03-31T05:54:26.295Z,566.6
2019-03-31T05:55:28.169Z,567.2
2019-03-31T05:56:30.588Z,567.1
2019-03-31T05:57:33.016Z,567
2019-03-31T05:58:35.444Z,567.2
2019-03-31T05:59:37.869Z,567.2
2019-03-31T06:00:40.038Z,567.6
2019-03-31T06:01:42.462Z,567
2019-03-31T06:02:44.891Z,567.3
2019-03-31T06:03:47.318Z,567.2
2019-03-31T06:04:49.474Z,567.3
2019-03-31T06:05:51.617Z,567
2019-03-31T06:06:54.028Z,567.3
2019-03-31T06:07:56.451Z,567
2019-03-31T06:08:58.626Z,567.2
2019-03-31T06:10:01.175Z,567.1
2019-03-31T06:11:03.328Z,567
2019-03-31T06:12:05.490Z,567
2019-03-31T06:13:07.916Z,567
2019-03-31T06:14:10.349Z,566.9
2019-03-31T06:15:12.770Z,566.6
2019-03-31T06:16:15.194Z,566.7
2019-03-31T06:17:17.326Z,566.8
2019-03-31T06:18:19.759Z,566.8
2019-03-31T06:19:22.182Z,566.9
2019-03-31T06:20:24.671Z,566.5
2019-03-31T06:22:31.980Z,567
2019-03-31T06:23:34.400Z,567.1
2019-03-31T06:24:36.825Z,566.4
2019-03-31T06:25:39.252Z,566.6
2019-03-31T06:26:41.403Z,566.6
2019-03-31T06:27:43.546Z,566.2
2019-03-31T06:28:46.045Z,566.3
2019-03-31T06:29:47.947Z,566.1
2019-03-31T06:30:51.098Z,566.3
2019-03-31T06:31:53.518Z,566.7
2019-03-31T06:32:57.562Z,566.1
2019-03-31T06:33:59.715Z,566.2
2019-03-31T06:35:02.172Z,566
2019-03-31T06:36:04.644Z,565.9
2019-03-31T06:37:07.072Z,566
2019-03-31T06:38:09.508Z,565.9
2019-03-31T06:39:11.938Z,565.8
2019-03-31T06:40:14.092Z,565.8
2019-03-31T06:41:16.507Z,565.7
2019-03-31T06:42:18.939Z,565.6
2019-03-31T06:43:21.365Z,565.7
2019-03-31T06:44:23.516Z,565.7
2019-03-31T06:45:25.949Z,565.7
2019-03-31T06:46:28.168Z,565.8
2019-03-31T06:47:30.595Z,565.6
2019-03-31T06:48:33.034Z,565.6
2019-03-31T06:49:34.917Z,565.3
2019-03-31T06:50:37.348Z,565.4
2019-03-31T06:51:39.484Z,565.6
2019-03-31T06:52:41.902Z,565.5
2019-03-31T06:53:44.314Z,565.6
2019-03-31T06:54:46.754Z,565.5
2019-03-31T06:55:49.178Z,565.4
2019-03-31T06:56:51.609Z,565.6
2019-03-31T06:57:59.777Z,565.5
2019-03-31T06:59:02.388Z,565.8
2019-03-31T07:00:04.813Z,565.8
2019-03-31T07:01:06.956Z,565.7
2019-03-31T07:02:09.381Z,566.3
2019-03-31T07:03:11.810Z,566
2019-03-31T07:04:14.229Z,565.9
2019-03-31T07:05:16.382Z,565.6
2019-03-31T07:06:18.827Z,565.7
2019-03-31T07:08:27.398Z,565.7
2019-03-31T07:09:29.671Z,565.6
2019-03-31T07:10:31.878Z,565.9
2019-03-31T07:11:34.378Z,565.6
2019-03-31T07:12:36.838Z,565.2
2019-03-31T07:13:39.309Z,565.2
2019-03-31T07:14:41.738Z,565.3
2019-03-31T07:15:43.889Z,565.2
2019-03-31T07:16:46.318Z,565.2
2019-03-31T07:17:48.741Z,564.9
2019-03-31T07:18:50.899Z,565.3
2019-03-31T07:19:53.345Z,564.8
2019-03-31T07:20:55.506Z,565
2019-03-31T07:21:57.685Z,565.3
2019-03-31T07:22:59.836Z,565.4
2019-03-31T07:24:02.011Z,565.5
2019-03-31T07:25:04.159Z,565.4
2019-03-31T07:26:06.594Z,565.6
2019-03-31T07:27:08.757Z,565.4
2019-03-31T07:28:11.181Z,565
2019-03-31T07:29:13.613Z,565.1
2019-03-31T07:30:16.046Z,565.2
2019-03-31T07:31:18.483Z,565.2
2019-03-31T07:32:20.908Z,564.9
2019-03-31T07:33:23.065Z,565.3
2019-03-31T07:34:25.488Z,565.2
2019-03-31T07:35:27.618Z,564.7
2019-03-31T07:36:29.768Z,565.1
2019-03-31T07:37:46.304Z,565.2
2019-03-31T07:40:50.424Z,564.9
2019-03-31T07:41:54.005Z,565.1
2019-03-31T07:42:56.371Z,564.7
2019-03-31T07:43:58.627Z,564.8
2019-03-31T07:45:01.212Z,565.1
2019-03-31T07:46:03.372Z,565
2019-03-31T07:47:05.556Z,565.1
2019-03-31T07:48:10.148Z,565
2019-03-31T07:49:12.311Z,565.1
2019-03-31T07:50:14.737Z,565.1
2019-03-31T07:51:17.155Z,565.1
2019-03-31T07:52:19.584Z,565.2
2019-03-31T07:53:22.087Z,565.1
2019-03-31T07:54:24.553Z,565.1
2019-03-31T07:55:26.980Z,565.2
2019-03-31T07:56:29.422Z,564.9
2019-03-31T07:57:31.858Z,565.5
2019-03-31T07:58:34.282Z,565.1
2019-03-31T07:59:36.808Z,565.2
2019-03-31T08:00:39.232Z,565.2
2019-03-31T08:01:41.648Z,565
2019-03-31T08:02:43.808Z,565.1
2019-03-31T08:03:45.960Z,564.9
2019-03-31T08:04:48.414Z,565.1
2019-03-31T08:05:50.290Z,564.9
2019-03-31T08:06:52.438Z,565.3
2019-03-31T08:07:54.600Z,565.5
2019-03-31T08:08:57.026Z,565.5
2019-03-31T08:09:59.459Z,565.4
2019-03-31T08:11:01.628Z,565.2
2019-03-31T08:12:03.776Z,565.4
2019-03-31T08:13:06.209Z,565.6
2019-03-31T08:14:08.635Z,565.5
2019-03-31T08:15:11.068Z,565.7
2019-03-31T08:16:13.508Z,565.5
2019-03-31T08:17:15.959Z,565.5
2019-03-31T08:18:18.394Z,565.9
2019-03-31T08:19:22.800Z,565.8
2019-03-31T08:20:24.689Z,565.9
2019-03-31T08:21:26.557Z,565.7
2019-03-31T08:22:28.977Z,565.6
2019-03-31T08:23:31.400Z,565.7
2019-03-31T08:24:33.826Z,565.9
2019-03-31T08:25:36.253Z,566.2
2019-03-31T08:26:38.681Z,566
2019-03-31T08:27:41.088Z,565.8
2019-03-31T08:28:43.514Z,565.8
2019-03-31T08:29:49.669Z,565.5
2019-03-31T08:30:51.999Z,565.7
2019-03-31T08:31:54.458Z,565.9
2019-03-31T08:32:56.895Z,565.2
2019-03-31T08:33:58.778Z,565.4
2019-03-31T08:35:00.882Z,565.6
2019-03-31T08:36:03.170Z,565.4
2019-03-31T08:37:05.643Z,565.7
2019-03-31T08:38:08.080Z,565.4
2019-03-31T08:39:10.572Z,565.4
2019-03-31T08:40:12.996Z,565.7
2019-03-31T08:41:14.917Z,565.5
2019-03-31T08:42:16.809Z,566
2019-03-31T08:43:19.247Z,566.1
2019-03-31T08:44:21.385Z,565.4
2019-03-31T08:45:23.810Z,565.6
2019-03-31T08:46:26.232Z,565.5
2019-03-31T08:47:28.648Z,565.7
2019-03-31T08:48:31.076Z,566.1
2019-03-31T08:49:33.495Z,566
2019-03-31T08:50:36.959Z,566.3
2019-03-31T08:51:39.473Z,566
2019-03-31T08:52:41.948Z,566.2
2019-03-31T08:53:44.397Z,566.3
2019-03-31T08:54:46.281Z,566.5
2019-03-31T08:55:48.434Z,566.7
2019-03-31T08:56:50.855Z,566.6
2019-03-31T08:57:53.028Z,566.1
2019-03-31T08:58:55.467Z,566.1
2019-03-31T08:59:57.611Z,566.1
2019-03-31T09:00:59.770Z,566.5
2019-03-31T09:03:06.719Z,566.4
2019-03-31T09:04:09.171Z,566.6
2019-03-31T09:05:11.408Z,566.4
2019-03-31T09:06:13.566Z,566.6
2019-03-31T09:07:15.998Z,566.8
2019-03-31T09:08:18.422Z,566.9
2019-03-31T09:09:20.992Z,566.5
2019-03-31T09:10:23.435Z,566.9
2019-03-31T09:11:25.870Z,566.9
2019-03-31T09:12:28.298Z,566.4
2019-03-31T09:13:30.463Z,567.1
2019-03-31T09:14:32.889Z,567
2019-03-31T09:15:34.482Z,567.3
2019-03-31T09:16:36.901Z,567.1
2019-03-31T09:17:39.057Z,567
2019-03-31T09:18:41.490Z,567
2019-03-31T09:19:43.927Z,567
2019-03-31T09:20:46.354Z,567
2019-03-31T09:21:48.537Z,567
2019-03-31T09:22:50.991Z,567.3
2019-03-31T09:23:53.464Z,567
2019-03-31T09:24:55.641Z,567
2019-03-31T09:25:58.064Z,566.6
2019-03-31T09:27:00.508Z,567
2019-03-31T09:28:03.009Z,567.1
2019-03-31T09:29:05.172Z,567.4
2019-03-31T09:30:07.605Z,567.3
2019-03-31T09:31:09.766Z,567.5
2019-03-31T09:32:12.201Z,567.1
2019-03-31T09:33:14.627Z,567.3
2019-03-31T09:34:17.061Z,567.4
2019-03-31T09:35:19.523Z,567.2
2019-03-31T09:36:21.670Z,567.4
2019-03-31T09:37:24.142Z,567.2
2019-03-31T09:38:26.593Z,566.9
2019-03-31T09:39:29.016Z,567.6
2019-03-31T09:40:31.494Z,566.8
2019-03-31T09:41:33.937Z,567.4
2019-03-31T09:42:36.375Z,567.5
2019-03-31T09:43:38.804Z,567.6
2019-03-31T09:44:41.229Z,567.5
2019-03-31T09:45:43.126Z,567.2
2019-03-31T09:46:45.557Z,567.4
2019-03-31T09:47:47.986Z,567.4
2019-03-31T09:48:50.422Z,567.6
2019-03-31T09:49:52.580Z,567.2
2019-03-31T09:52:00.003Z,567.9
2019-03-31T09:53:02.508Z,567.7
2019-03-31T09:54:04.980Z,567.6
2019-03-31T09:55:07.136Z,567.8
2019-03-31T09:56:09.555Z,568
2019-03-31T09:57:12.001Z,568.2
2019-03-31T09:58:14.149Z,568.2
2019-03-31T09:59:16.053Z,568.2
2019-03-31T10:00:18.202Z,568.1
2019-03-31T10:01:20.064Z,568.1
2019-03-31T10:02:22.246Z,568.9
2019-03-31T10:03:24.738Z,568.4
2019-03-31T10:04:27.167Z,568.7
2019-03-31T10:05:29.353Z,569.1
2019-03-31T10:06:32.729Z,569.3
2019-03-31T10:07:35.153Z,569
2019-03-31T10:08:37.601Z,568.7
2019-03-31T10:09:39.753Z,568.9
2019-03-31T10:10:42.188Z,568.7
2019-03-31T10:11:44.610Z,568.7
2019-03-31T10:12:46.785Z,568.8
2019-03-31T10:13:48.659Z,569.1
2019-03-31T10:15:57.251Z,569.7
2019-03-31T10:16:59.678Z,569.5
2019-03-31T10:18:02.172Z,569.3
2019-03-31T10:19:04.598Z,570
2019-03-31T10:20:07.041Z,570.2
2019-03-31T10:21:09.237Z,570.2
2019-03-31T10:22:11.673Z,569.9
2019-03-31T10:23:14.102Z,570.4
2019-03-31T10:24:15.989Z,570.1
2019-03-31T10:25:18.420Z,570.2
2019-03-31T10:27:25.836Z,570.9
2019-03-31T10:28:28.008Z,570.8
2019-03-31T10:29:30.439Z,571.4
2019-03-31T10:30:32.863Z,571.5
2019-03-31T10:31:35.301Z,571.4
2019-03-31T10:32:37.471Z,570.7
2019-03-31T10:33:39.894Z,571.2
2019-03-31T10:34:42.347Z,571.5
2019-03-31T10:35:44.785Z,571.7
2019-03-31T10:36:46.821Z,572.3
2019-03-31T10:37:49.270Z,572.2
2019-03-31T10:38:51.700Z,572
2019-03-31T10:39:54.127Z,572.1
2019-03-31T10:40:56.554Z,571.9
2019-03-31T10:41:58.987Z,572.3
2019-03-31T10:43:01.419Z,572
2019-03-31T10:44:03.852Z,572.5
2019-03-31T10:45:06.279Z,572.5
2019-03-31T10:46:08.708Z,572.6
2019-03-31T10:47:11.147Z,572.3
2019-03-31T10:49:18.556Z,572.6
2019-03-31T10:50:20.689Z,572.8
2019-03-31T10:51:23.119Z,573.1
2019-03-31T10:52:25.272Z,572.5
2019-03-31T10:53:27.711Z,572.9
2019-03-31T10:54:29.609Z,572.9
2019-03-31T10:55:31.780Z,573.4
2019-03-31T10:56:34.209Z,573.2
2019-03-31T10:57:36.794Z,573.2
2019-03-31T10:58:39.230Z,573
2019-03-31T10:59:41.641Z,573.4
2019-03-31T11:01:49.077Z,573.1
2019-03-31T11:02:51.500Z,573.1
2019-03-31T11:03:53.930Z,573.4
2019-03-31T11:04:56.355Z,573.2
2019-03-31T11:05:58.530Z,572.7
2019-03-31T11:08:05.980Z,573.4
2019-03-31T11:09:08.212Z,573.2
2019-03-31T11:10:10.374Z,572.8
2019-03-31T11:11:12.813Z,573.1
2019-03-31T11:12:15.240Z,573.6
2019-03-31T11:13:17.666Z,573.8
2019-03-31T11:14:20.095Z,573.8
2019-03-31T11:15:22.533Z,573.3
2019-03-31T11:16:24.700Z,573.5
2019-03-31T11:17:26.838Z,573.5
2019-03-31T11:18:29.272Z,573.3
2019-03-31T11:19:31.439Z,573.3
2019-03-31T11:20:33.872Z,573.6
2019-03-31T11:21:36.330Z,573.7
2019-03-31T11:22:38.190Z,573.9
2019-03-31T11:23:40.623Z,574.1
2019-03-31T11:24:43.055Z,574
2019-03-31T11:25:45.482Z,573.4
2019-03-31T11:26:47.905Z,573.8
2019-03-31T11:27:50.339Z,573.7
2019-03-31T11:28:52.785Z,574
2019-03-31T11:29:54.681Z,573.9
2019-03-31T11:30:57.170Z,574.1
2019-03-31T11:31:59.597Z,573.8
2019-03-31T11:33:01.771Z,574.1
2019-03-31T11:34:04.205Z,574.9
2019-03-31T11:35:06.409Z,574.7
2019-03-31T11:36:08.865Z,574.4
2019-03-31T11:38:16.269Z,575
2019-03-31T11:39:18.536Z,574.9
2019-03-31T11:40:20.972Z,575.7
2019-03-31T11:41:23.411Z,575.7
2019-03-31T11:42:25.359Z,575
2019-03-31T11:43:27.787Z,575
2019-03-31T11:44:30.224Z,575.2
2019-03-31T11:45:32.660Z,575.4
2019-03-31T11:46:35.096Z,575.9
2019-03-31T11:47:37.297Z,575.8
2019-03-31T11:48:39.737Z,576
2019-03-31T11:49:41.607Z,576.4
2019-03-31T11:50:44.049Z,576.9
2019-03-31T11:51:46.491Z,576.2
2019-03-31T11:52:48.917Z,576.3
2019-03-31T11:53:51.357Z,576.3
2019-03-31T11:54:53.788Z,576.6
2019-03-31T11:55:55.957Z,576.6
2019-03-31T11:56:58.393Z,576.4
2019-03-31T11:58:00.820Z,576.2
2019-03-31T11:59:03.260Z,576
2019-03-31T12:00:05.432Z,576.3
2019-03-31T12:01:07.861Z,576.4
2019-03-31T12:02:10.287Z,576.4
2019-03-31T12:03:12.719Z,576.1
2019-03-31T12:04:14.894Z,576.4
2019-03-31T12:05:17.070Z,576.7
2019-03-31T12:06:19.494Z,576.4
2019-03-31T12:08:26.904Z,576.3
2019-03-31T12:09:29.067Z,576.9
2019-03-31T12:10:31.503Z,577.3
2019-03-31T12:11:33.659Z,577.8
2019-03-31T12:12:36.097Z,577.6
2019-03-31T12:13:38.532Z,576.8
2019-03-31T12:14:40.953Z,577
2019-03-31T12:15:43.395Z,576.8
2019-03-31T12:16:45.609Z,577.2
2019-03-31T12:17:47.509Z,577.1
2019-03-31T12:18:49.928Z,577.5
2019-03-31T12:19:52.355Z,577.3
2019-03-31T12:20:54.231Z,577.9
2019-03-31T12:21:56.658Z,577.8
2019-03-31T12:22:58.814Z,578
2019-03-31T12:24:01.244Z,578.2
2019-03-31T12:25:03.399Z,577.9
2019-03-31T12:26:05.557Z,578.8
2019-03-31T12:27:07.997Z,579
2019-03-31T12:28:10.145Z,579.4
2019-03-31T12:29:12.015Z,579.2
2019-03-31T12:30:14.463Z,579.3
2019-03-31T12:31:16.605Z,579.4
2019-03-31T12:32:19.043Z,578.5
2019-03-31T12:33:21.209Z,579.5
2019-03-31T12:34:23.649Z,579.7
2019-03-31T12:35:26.136Z,579.6
2019-03-31T12:36:28.577Z,579.7
2019-03-31T12:38:35.168Z,580.3
2019-03-31T12:39:37.634Z,580.1
2019-03-31T12:40:39.788Z,580.4
2019-03-31T12:41:41.950Z,580.6
2019-03-31T12:42:44.114Z,580.6
2019-03-31T12:43:46.283Z,580
2019-03-31T12:44:48.729Z,580.7
2019-03-31T12:45:51.165Z,580.8
2019-03-31T12:49:04.530Z,581.2
2019-03-31T12:50:06.958Z,581.3
2019-03-31T12:51:09.390Z,581
2019-03-31T12:52:11.540Z,581.1
2019-03-31T12:53:13.691Z,581.6
2019-03-31T12:54:15.606Z,581.8
2019-03-31T12:55:18.049Z,582.1
2019-03-31T12:56:20.485Z,581.3
2019-03-31T12:57:22.920Z,581.9
2019-03-31T12:58:25.082Z,581.7
2019-03-31T12:59:29.474Z,581.8
2019-03-31T13:00:31.897Z,582
2019-03-31T13:01:34.344Z,581.9
2019-03-31T13:02:36.786Z,582.2
2019-03-31T13:03:38.937Z,582
2019-03-31T13:04:40.798Z,582.4
2019-03-31T13:05:43.242Z,582.6
2019-03-31T13:06:45.667Z,582.5
2019-03-31T13:08:53.075Z,582.2
2019-03-31T13:09:55.511Z,582.2
2019-03-31T13:10:57.941Z,582.3
2019-03-31T13:12:00.369Z,582.3
2019-03-31T13:13:02.546Z,582.5
2019-03-31T13:14:04.725Z,582.7
2019-03-31T13:15:06.979Z,583
2019-03-31T13:16:09.414Z,583.4
2019-03-31T13:17:11.576Z,583.2
2019-03-31T13:18:13.745Z,582.6
2019-03-31T13:19:16.191Z,582.5
2019-03-31T13:20:18.083Z,582.6
2019-03-31T13:21:20.247Z,583.2
2019-03-31T13:22:22.414Z,583.3
2019-03-31T13:23:24.578Z,583.2
2019-03-31T13:24:26.998Z,583.3
2019-03-31T13:25:29.425Z,583.4
2019-03-31T13:26:31.855Z,583.5
2019-03-31T13:27:33.994Z,583.3
2019-03-31T13:28:36.163Z,583.7
2019-03-31T13:29:40.355Z,583.2
2019-03-31T13:30:42.521Z,583.2
2019-03-31T13:31:44.684Z,583.4
2019-03-31T13:32:46.827Z,583.4
2019-03-31T13:33:48.989Z,583.5
2019-03-31T13:34:51.156Z,583.6
2019-03-31T13:35:54.998Z,583.6
2019-03-31T13:36:57.441Z,584.2
2019-03-31T13:39:04.858Z,583.9
2019-03-31T13:40:07.309Z,584.1
2019-03-31T13:41:09.538Z,584.3
2019-03-31T13:42:11.445Z,584.5
2019-03-31T13:43:13.888Z,584.5
2019-03-31T13:44:16.324Z,584.3
2019-03-31T13:45:18.690Z,584.3
2019-03-31T13:46:20.927Z,584.6
2019-03-31T13:47:23.358Z,584
2019-03-31T13:48:25.575Z,584.8
2019-03-31T13:49:27.711Z,584.5
2019-03-31T13:50:29.890Z,584.7
2019-03-31T13:51:32.341Z,585.4
2019-03-31T13:52:34.517Z,585.5
2019-03-31T13:53:36.950Z,585.6